ADDS METAR Data INFO
IDs: Format: Raw Decoded Include TAF

Data at: 2256 UTC 22 Jun 2018

KTVC 222153Z VRB04KT 10SM FEW130 OVC240 26/11 A2981 RMK AO2 SLP094 T02560111
KTVC 222053Z 01008KT 10SM FEW130 BKN240 26/11 A2981 RMK AO2 SLP095 T02610106 56019
KTVC 221953Z 36008KT 10SM FEW130 BKN240 25/10 A2983 RMK AO2 SLP102 T02500100
KTVC 221853Z 01009KT 10SM FEW120 BKN250 26/11 A2984 RMK AO2 SLP104 T02560106
KTVC 221753Z 03005KT 10SM FEW120 BKN250 23/13 A2987 RMK AO2 SLP114 T02330133 10233 20133 58013
KTVC 221653Z 02004KT 10SM FEW120 BKN250 21/12 A2990 RMK AO2 SLP124 T02060117
KTVC 221553Z 05006KT 10SM FEW120 BKN250 20/11 A2991 RMK AO2 SLP127 T02000111
KTVC 221453Z 03006KT 10SM FEW120 OVC250 19/10 A2991 RMK AO2 SLP127 T01890100 58002
KTVC 221353Z 01005KT 10SM FEW120 OVC250 17/08 A2992 RMK AO2 SLP130 T01670083
KTVC 221253Z 06003KT 10SM FEW120 BKN250 15/07 A2992 RMK AO2 SLP130 T01500067
KTVC 221153Z 00000KT 10SM FEW120 BKN250 13/07 A2992 RMK AO2 SLP129 T01330067 10144 20083 53005
KTVC 221053Z 00000KT 10SM FEW120 BKN250 09/07 A2991 RMK AO2 SLP128 T00940067
KTVC 220953Z AUTO 00000KT 10SM CLR 08/06 A2990 RMK AO2 SLP125 T00830061
KTVC 220853Z AUTO 00000KT 10SM CLR 11/04 A2990 RMK AO2 SLP124 T01060044 58006
KTVC 220753Z AUTO 00000KT 10SM CLR 12/02 A2991 RMK AO2 SLP126 T01170022
KTVC 220653Z AUTO 00000KT 10SM CLR 13/01 A2991 RMK AO2 SLP128 T01280011
KTVC 220553Z AUTO 00000KT 10SM CLR 15/01 A2992 RMK AO2 SLP129 T01500006 10250 20144 50000
KTVC 220453Z AUTO 08003KT 10SM CLR 16/02 A2992 RMK AO2 SLP131 T01560017 402670122
KTVC 220353Z AUTO 09005KT 10SM CLR 17/04 A2992 RMK AO2 SLP132 T01720039
KTVC 220153Z 06006KT 10SM SCT250 21/06 A2990 RMK AO2 SLP121 LAST T02110061
KTVC 220053Z 09006KT 10SM BKN250 23/08 A2988 RMK AO2 SLP116 T02330078
KTVC 212353Z 08007KT 10SM FEW055 BKN250 25/11 A2987 RMK AO2 SLP112 T02500106 10267 20239 53001
KTVC 212253Z 05011G18KT 10SM FEW055 BKN250 26/12 A2986 RMK AO2 SLP110 T02560122
KTVC 212153Z 02009KT 10SM SCT055 BKN250 25/14 A2986 RMK AO2 SLP109 T02500144
KTVC 212053Z 01006KT 10SM SCT055 BKN250 26/14 A2987 RMK AO2 SLP111 T02610139 56012
KTVC 211953Z 03010KT 10SM FEW050 BKN250 26/14 A2987 RMK AO2 SLP114 T02560144
KTVC 211853Z 01008KT 10SM FEW050 BKN250 24/14 A2989 RMK AO2 SLP119 T02440139
KTVC 211753Z 11007KT 070V130 10SM FEW050 BKN250 26/13 A2990 RMK AO2 SLP123 T02560133 10256 20161 58007
KTVC 211653Z VRB04KT 10SM BKN250 23/13 A2991 RMK AO2 SLP127 T02280133
KTVC 211553Z VRB06KT 10SM BKN250 22/13 A2992 RMK AO2 SLP130 T02170133
KTVC 211453Z 10008KT 10SM BKN250 20/13 A2992 RMK AO2 SLP131 T02000128 50002
KTVC 211353Z 11007KT 10SM BKN250 19/13 A2992 RMK AO2 SLP131 T01940128
KTVC 211253Z 08004KT 10SM BKN250 18/13 A2992 RMK AO2 SLP132 T01780128
KTVC 211153Z 09003KT 10SM BKN250 16/13 A2992 RMK AO2 SLP129 T01610128 10161 20122 51014